createdAt,value
2023-03-17T00:01:54.784Z,100533.41
2023-03-17T00:04:26.692Z,100514.78
2023-03-17T00:06:54.560Z,100542.13
2023-03-17T00:09:23.977Z,100533.41
2023-03-17T00:11:50.906Z,100543.00
2023-03-17T00:14:21.384Z,100557.00
2023-03-17T00:16:50.257Z,100556.16
2023-03-17T00:19:31.387Z,100548.31
2023-03-17T00:22:01.398Z,100561.38
2023-03-17T00:24:29.329Z,100554.44
2023-03-17T00:26:56.245Z,100549.16
2023-03-17T00:29:25.512Z,100541.22
2023-03-17T00:31:52.349Z,100554.34
2023-03-17T00:34:21.500Z,100549.97
2023-03-17T00:36:49.945Z,100555.22
2023-03-17T00:39:17.025Z,100562.16
2023-03-17T00:44:12.462Z,100556.16
2023-03-17T00:46:42.077Z,100553.47
2023-03-17T00:49:21.314Z,100553.44
2023-03-17T00:51:49.831Z,100560.44
2023-03-17T00:54:17.822Z,100549.97
2023-03-17T00:56:48.047Z,100558.72
2023-03-17T00:59:32.506Z,100555.25
2023-03-17T01:01:59.804Z,100550.78
2023-03-17T01:04:26.528Z,100567.50
2023-03-17T01:06:54.151Z,100563.06
2023-03-17T01:09:25.936Z,100524.34
2023-03-17T01:11:55.740Z,100559.72
2023-03-17T01:14:24.983Z,100557.06
2023-03-17T01:16:55.454Z,100555.38
2023-03-17T01:19:22.410Z,100542.13
2023-03-17T01:21:52.388Z,100554.50
2023-03-17T01:24:19.758Z,100543.06
2023-03-17T01:26:46.866Z,100550.09
2023-03-17T01:29:13.941Z,100552.75
2023-03-17T01:31:41.263Z,100556.28
2023-03-17T01:34:08.049Z,100545.00
2023-03-17T01:36:35.778Z,100545.00
2023-03-17T01:39:05.440Z,100515.84
2023-03-17T01:41:36.540Z,100542.34
2023-03-17T01:44:04.188Z,100536.19
2023-03-17T01:46:31.009Z,100538.84
2023-03-17T01:49:06.920Z,100539.75
2023-03-17T01:51:36.680Z,100542.41
2023-03-17T01:54:10.650Z,100540.59
2023-03-17T01:56:41.788Z,100531.88
2023-03-17T01:59:11.630Z,100530.97
2023-03-17T02:01:43.929Z,100492.19
2023-03-17T02:04:14.259Z,100509.72
2023-03-17T02:06:55.154Z,100522.06
2023-03-17T02:09:24.037Z,100520.31
2023-03-17T02:11:53.391Z,100509.72
2023-03-17T02:14:20.538Z,100513.25
2023-03-17T02:16:47.696Z,100514.97
2023-03-17T02:19:14.340Z,100507.16
2023-03-17T02:21:47.811Z,100497.56
2023-03-17T02:24:26.575Z,100502.72
2023-03-17T02:26:55.731Z,100504.47
2023-03-17T02:29:25.704Z,100503.56
2023-03-17T02:31:55.191Z,100502.69
2023-03-17T02:34:21.838Z,100487.72
2023-03-17T02:36:48.646Z,100500.00
2023-03-17T02:39:18.090Z,100499.13
2023-03-17T02:41:44.740Z,100484.25
2023-03-17T02:44:11.476Z,100474.81
2023-03-17T02:46:38.188Z,100465.22
2023-03-17T02:49:05.600Z,100453.75
2023-03-17T02:51:32.384Z,100472.19
2023-03-17T02:54:01.248Z,100472.19
2023-03-17T02:56:31.050Z,100444.94
2023-03-17T02:59:00.419Z,100466.09
2023-03-17T03:01:27.474Z,100473.03
2023-03-17T03:03:54.337Z,100473.06
2023-03-17T03:06:21.239Z,100466.88
2023-03-17T03:08:47.930Z,100475.66
2023-03-17T03:11:14.583Z,100484.38
2023-03-17T03:13:43.715Z,100477.44
2023-03-17T03:16:10.445Z,100467.84
2023-03-17T03:18:37.859Z,100471.38
2023-03-17T03:21:05.442Z,100459.09
2023-03-17T03:23:32.107Z,100433.56
2023-03-17T03:25:58.865Z,100465.22
2023-03-17T03:28:25.886Z,100440.56
2023-03-17T03:30:55.170Z,100450.28
2023-03-17T03:33:24.892Z,100463.47
2023-03-17T03:35:54.027Z,100455.66
2023-03-17T03:38:20.734Z,100446.97
2023-03-17T03:40:49.829Z,100448.66
2023-03-17T03:43:23.240Z,100460.00
2023-03-17T03:45:50.589Z,100459.75
2023-03-17T03:48:17.942Z,100488.56
2023-03-17T03:50:47.745Z,100485.78
2023-03-17T03:53:15.310Z,100498.78
2023-03-17T03:55:42.110Z,100496.09
2023-03-17T03:58:11.435Z,100457.41
2023-03-17T04:00:38.403Z,100494.31
2023-03-17T04:03:05.324Z,100468.00
2023-03-17T04:05:32.079Z,100460.91
2023-03-17T04:07:58.844Z,100488.22
2023-03-17T04:10:25.462Z,100481.34
2023-03-17T04:12:52.194Z,100492.66
2023-03-17T04:15:20.502Z,100467.22
2023-03-17T04:17:47.600Z,100487.47
2023-03-17T04:20:15.978Z,100497.06
2023-03-17T04:22:43.389Z,100495.28
2023-03-17T04:25:13.660Z,100481.31
2023-03-17T04:27:43.052Z,100460.97
2023-03-17T04:30:13.965Z,100502.28
2023-03-17T04:32:41.856Z,100495.31
2023-03-17T04:35:13.037Z,100497.91
2023-03-17T04:37:39.719Z,100489.19
2023-03-17T04:40:10.078Z,100489.94
2023-03-17T04:42:37.876Z,100497.88
2023-03-17T04:45:06.457Z,100494.34
2023-03-17T04:47:36.003Z,100482.03
2023-03-17T04:50:02.721Z,100467.13
2023-03-17T04:52:29.554Z,100476.09
2023-03-17T04:54:58.565Z,100473.38
2023-03-17T04:57:27.582Z,100458.34
2023-03-17T04:59:57.777Z,100482.84
2023-03-17T05:02:29.279Z,100464.31
2023-03-17T05:04:56.159Z,100474.88
2023-03-17T05:07:25.665Z,100473.91
2023-03-17T05:09:52.270Z,100488.66
2023-03-17T05:12:19.003Z,100462.22
2023-03-17T05:14:45.596Z,100481.69
2023-03-17T05:17:12.324Z,100486.84
2023-03-17T05:19:41.065Z,100480.59
2023-03-17T05:22:10.285Z,100499.84
2023-03-17T05:24:36.943Z,100492.81
2023-03-17T05:27:06.159Z,100485.84
2023-03-17T05:29:32.850Z,100483.19
2023-03-17T05:31:59.521Z,100493.66
2023-03-17T05:34:27.145Z,100439.09
2023-03-17T05:36:54.456Z,100488.50
2023-03-17T05:39:21.083Z,100480.72
2023-03-17T05:41:48.129Z,100484.19
2023-03-17T05:44:14.783Z,100472.00
2023-03-17T05:46:42.084Z,100466.75
2023-03-17T05:49:10.956Z,100460.47
2023-03-17T05:51:37.581Z,100482.28
2023-03-17T05:54:04.463Z,100485.69
2023-03-17T05:56:33.864Z,100485.50
2023-03-17T05:59:01.754Z,100492.50
2023-03-17T06:01:29.575Z,100496.75
2023-03-17T06:03:56.695Z,100494.78
2023-03-17T06:06:24.700Z,100484.28
2023-03-17T06:08:51.959Z,100493.81
2023-03-17T06:11:20.802Z,100476.41
2023-03-17T06:13:47.971Z,100479.94
2023-03-17T06:16:15.375Z,100479.81
2023-03-17T06:18:47.256Z,100487.53
2023-03-17T06:21:14.477Z,100483.97
2023-03-17T06:23:41.214Z,100485.00
2023-03-17T06:26:11.783Z,100489.31
2023-03-17T06:28:38.406Z,100490.22
2023-03-17T06:31:08.948Z,100489.25
2023-03-17T06:33:35.845Z,100484.00
2023-03-17T06:36:03.488Z,100484.69
2023-03-17T06:38:30.222Z,100492.56
2023-03-17T06:40:58.047Z,100498.63
2023-03-17T06:43:27.292Z,100502.97
2023-03-17T06:45:53.987Z,100515.09
2023-03-17T06:48:20.742Z,100496.84
2023-03-17T06:50:47.838Z,100499.22
2023-03-17T06:53:14.777Z,100497.41
2023-03-17T06:55:42.218Z,100477.56
2023-03-17T06:58:10.690Z,100458.19
2023-03-17T07:00:38.481Z,100458.38
2023-03-17T07:03:06.083Z,100450.59
2023-03-17T07:05:34.934Z,100444.41
2023-03-17T07:08:01.583Z,100489.88
2023-03-17T07:10:28.248Z,100497.50
2023-03-17T07:12:55.184Z,100485.03
2023-03-17T07:15:26.710Z,100507.59
2023-03-17T07:17:55.752Z,100504.91
2023-03-17T07:20:25.199Z,100490.78
2023-03-17T07:22:51.862Z,100516.91
2023-03-17T07:25:20.818Z,100501.03
2023-03-17T07:27:47.499Z,100500.31
2023-03-17T07:30:19.079Z,100502.06
2023-03-17T07:32:46.940Z,100501.28
2023-03-17T07:35:15.585Z,100500.50
2023-03-17T07:37:43.093Z,100485.78
2023-03-17T07:40:11.002Z,100486.63
2023-03-17T07:42:40.248Z,100489.47
2023-03-17T07:45:08.102Z,100477.13
2023-03-17T07:47:34.730Z,100508.63
2023-03-17T07:50:04.246Z,100525.38
2023-03-17T07:52:31.033Z,100532.38
2023-03-17T07:54:58.488Z,100507.88
2023-03-17T07:57:25.263Z,100529.97
2023-03-17T07:59:52.088Z,100515.00
2023-03-17T08:02:19.736Z,100527.34
2023-03-17T08:04:46.574Z,100542.28
2023-03-17T08:07:14.736Z,100538.81
2023-03-17T08:09:43.576Z,100534.47
2023-03-17T08:12:13.894Z,100540.66
2023-03-17T08:14:44.631Z,100518.72
2023-03-17T08:17:11.717Z,100535.41
2023-03-17T08:19:38.403Z,100540.75
2023-03-17T08:22:05.199Z,100531.06
2023-03-17T08:24:32.698Z,100543.50
2023-03-17T08:27:00.848Z,100548.03
2023-03-17T08:29:29.026Z,100541.94
2023-03-17T08:31:56.081Z,100536.97
2023-03-17T08:34:24.252Z,100544.00
2023-03-17T08:36:53.317Z,100531.97
2023-03-17T08:39:20.691Z,100534.72
2023-03-17T08:41:47.808Z,100519.81
2023-03-17T08:44:14.961Z,100543.81
2023-03-17T08:46:41.922Z,100530.06
2023-03-17T08:49:12.677Z,100536.31
2023-03-17T08:51:44.137Z,100515.41
2023-03-17T08:54:15.413Z,100523.44
2023-03-17T08:56:42.658Z,100527.88
2023-03-17T08:59:10.591Z,100540.16
2023-03-17T09:01:40.353Z,100531.50
2023-03-17T09:04:07.241Z,100533.50
2023-03-17T09:06:33.885Z,100510.78
2023-03-17T09:09:00.567Z,100531.97
2023-03-17T09:11:29.293Z,100545.16
2023-03-17T09:13:56.591Z,100524.78
2023-03-17T09:16:27.078Z,100535.22
2023-03-17T09:18:53.890Z,100535.00
2023-03-17T09:21:21.369Z,100535.81
2023-03-17T09:23:48.212Z,100540.94
2023-03-17T09:26:14.938Z,100517.94
2023-03-17T09:28:42.034Z,100524.09
2023-03-17T09:31:12.534Z,100538.91
2023-03-17T09:33:40.744Z,100533.69
2023-03-17T09:36:09.173Z,100532.75
2023-03-17T09:38:37.270Z,100525.84
2023-03-17T09:41:08.415Z,100523.97
2023-03-17T09:43:58.710Z,100513.53
2023-03-17T09:46:48.592Z,100524.94
2023-03-17T09:49:25.299Z,100500.03
2023-03-17T09:51:52.061Z,100521.97
2023-03-17T09:54:27.549Z,100537.75
2023-03-17T09:57:12.644Z,100534.19
2023-03-17T09:59:45.968Z,100541.97
2023-03-17T10:02:25.449Z,100539.34
2023-03-17T10:04:54.727Z,100539.31
2023-03-17T10:07:28.661Z,100542.78
2023-03-17T10:10:12.565Z,100544.53
2023-03-17T10:12:52.705Z,100552.31
2023-03-17T10:15:38.897Z,100559.13
2023-03-17T10:18:14.857Z,100553.81
2023-03-17T10:21:06.278Z,100560.72
2023-03-17T10:23:36.535Z,100522.66
2023-03-17T10:26:17.428Z,100559.56
2023-03-17T10:28:44.432Z,100561.13
2023-03-17T10:31:18.755Z,100560.28
2023-03-17T10:33:52.453Z,100565.47
2023-03-17T10:36:34.992Z,100565.47
2023-03-17T10:39:05.730Z,100565.63
2023-03-17T10:41:36.298Z,100571.63
2023-03-17T10:44:10.104Z,100563.66
2023-03-17T10:46:38.662Z,100566.19
2023-03-17T10:49:16.470Z,100569.72
2023-03-17T10:51:46.461Z,100569.72
2023-03-17T10:54:18.716Z,100545.81
2023-03-17T10:56:52.098Z,100556.31
2023-03-17T10:59:32.572Z,100578.22
2023-03-17T11:02:01.532Z,100574.47
2023-03-17T11:04:37.366Z,100559.31
2023-03-17T11:07:15.418Z,100585.88
2023-03-17T11:09:42.411Z,100585.00
2023-03-17T11:12:50.676Z,100584.19
2023-03-17T11:15:20.247Z,100582.56
2023-03-17T11:18:04.577Z,100570.53
2023-03-17T11:20:48.351Z,100578.63
2023-03-17T11:23:47.696Z,100571.88
2023-03-17T11:26:24.376Z,100583.25
2023-03-17T11:29:01.269Z,100588.66
2023-03-17T11:32:12.589Z,100595.81
2023-03-17T11:35:18.969Z,100577.78
2023-03-17T11:38:09.796Z,100581.50
2023-03-17T11:41:02.569Z,100586.09
2023-03-17T11:43:46.855Z,100586.31
2023-03-17T11:46:24.849Z,100578.69
2023-03-17T11:48:57.403Z,100574.66
2023-03-17T11:51:45.379Z,100583.66
2023-03-17T11:54:24.825Z,100565.41
2023-03-17T11:56:57.760Z,100562.00
2023-03-17T11:59:32.723Z,100585.75
2023-03-17T12:02:24.152Z,100574.72
2023-03-17T12:05:07.000Z,100576.22
2023-03-17T12:07:53.254Z,100572.66
2023-03-17T12:10:47.865Z,100568.94
2023-03-17T12:13:22.141Z,100564.00
2023-03-17T12:15:53.184Z,100562.41
2023-03-17T12:18:47.726Z,100546.88
2023-03-17T12:21:38.840Z,100546.16
2023-03-17T12:24:20.252Z,100520.88
2023-03-17T12:27:11.797Z,100555.28
2023-03-17T12:29:47.394Z,100539.81
2023-03-17T12:32:26.321Z,100536.47
2023-03-17T12:34:57.558Z,100530.38
2023-03-17T12:37:27.737Z,100541.88
2023-03-17T12:40:01.907Z,100542.81
2023-03-17T12:43:07.441Z,100549.00
2023-03-17T12:46:03.051Z,100539.25
2023-03-17T12:48:48.517Z,100554.13
2023-03-17T12:51:34.083Z,100554.94
2023-03-17T12:54:01.041Z,100533.03
2023-03-17T12:56:31.274Z,100533.03
2023-03-17T12:59:06.202Z,100548.81
2023-03-17T13:01:44.721Z,100541.06
2023-03-17T13:04:38.378Z,100543.69
2023-03-17T13:07:25.775Z,100545.44
2023-03-17T13:09:55.563Z,100554.09
2023-03-17T13:12:43.563Z,100555.81
2023-03-17T13:15:37.492Z,100561.03
2023-03-17T13:18:36.342Z,100557.56
2023-03-17T13:21:03.011Z,100554.97
2023-03-17T13:23:44.972Z,100549.72
2023-03-17T13:26:18.761Z,100533.94
2023-03-17T13:28:49.213Z,100542.66
2023-03-17T13:31:28.613Z,100536.47
2023-03-17T13:34:05.048Z,100538.94
2023-03-17T13:36:38.690Z,100534.44
2023-03-17T13:39:31.147Z,100543.13
2023-03-17T13:42:15.624Z,100521.13
2023-03-17T13:45:02.963Z,100532.53
2023-03-17T13:47:39.071Z,100528.22
2023-03-17T13:50:12.722Z,100528.19
2023-03-17T13:52:48.625Z,100525.50
2023-03-17T13:55:18.317Z,100525.44
2023-03-17T13:58:09.216Z,100527.97
2023-03-17T14:00:44.349Z,100529.59
2023-03-17T14:03:25.090Z,100522.53
2023-03-17T14:05:55.407Z,100528.59
2023-03-17T14:08:52.512Z,100539.00
2023-03-17T14:11:47.934Z,100538.91
2023-03-17T14:14:31.489Z,100536.16
2023-03-17T14:17:30.309Z,100539.59
2023-03-17T14:20:15.708Z,100529.19
2023-03-17T14:22:49.016Z,100530.13
2023-03-17T14:25:26.860Z,100520.59
2023-03-17T14:27:57.606Z,100512.78
2023-03-17T14:30:29.035Z,100516.28
2023-03-17T14:33:27.225Z,100519.78
2023-03-17T14:35:57.753Z,100519.88
2023-03-17T14:38:24.459Z,100516.47
2023-03-17T14:41:01.219Z,100470.88
2023-03-17T14:43:27.984Z,100513.94
2023-03-17T14:46:21.575Z,100520.06
2023-03-17T14:48:56.958Z,100511.44
2023-03-17T14:51:25.367Z,100466.69
2023-03-17T14:53:54.070Z,100497.53
2023-03-17T14:56:25.754Z,100508.03
2023-03-17T14:58:52.985Z,100508.94
2023-03-17T15:01:35.282Z,100508.03
2023-03-17T15:04:12.716Z,100513.31
2023-03-17T15:07:03.007Z,100509.84
2023-03-17T15:09:34.402Z,100510.81
2023-03-17T15:12:13.027Z,100512.66
2023-03-17T15:14:43.134Z,100511.84
2023-03-17T15:17:20.218Z,100498.75
2023-03-17T15:19:57.401Z,100501.44
2023-03-17T15:22:26.008Z,100509.34
2023-03-17T15:25:05.078Z,100514.53
2023-03-17T15:27:32.005Z,100515.41
2023-03-17T15:29:59.118Z,100507.47
2023-03-17T15:32:29.249Z,100507.47
2023-03-17T15:35:01.941Z,100502.28
2023-03-17T15:37:31.984Z,100500.56
2023-03-17T15:40:00.443Z,100497.06
2023-03-17T15:42:32.702Z,100506.75
2023-03-17T15:45:03.907Z,100499.72
2023-03-17T15:47:36.980Z,100493.63
2023-03-17T15:50:13.968Z,100489.31
2023-03-17T15:52:41.128Z,100490.19
2023-03-17T15:55:25.511Z,100480.53
2023-03-17T15:57:55.683Z,100498.06
2023-03-17T16:00:24.510Z,100492.75
2023-03-17T16:02:59.994Z,100498.03
2023-03-17T16:05:28.433Z,100491.91
2023-03-17T16:07:55.805Z,100475.22
2023-03-17T16:10:25.609Z,100489.28
2023-03-17T16:12:52.863Z,100475.28
2023-03-17T16:15:23.710Z,100494.53
2023-03-17T16:18:02.478Z,100493.59
2023-03-17T16:20:40.696Z,100497.09
2023-03-17T16:23:14.269Z,100489.13
2023-03-17T16:25:41.762Z,100498.72
2023-03-17T16:28:20.854Z,100501.25
2023-03-17T16:30:49.415Z,100508.09
2023-03-17T16:33:22.543Z,100507.16
2023-03-17T16:35:50.665Z,100510.56
2023-03-17T16:38:19.688Z,100503.44
2023-03-17T16:40:48.790Z,100505.19
2023-03-17T16:43:28.213Z,100509.47
2023-03-17T16:45:57.845Z,100512.06
2023-03-17T16:48:25.280Z,100528.59
2023-03-17T16:50:52.161Z,100495.13
2023-03-17T16:53:18.989Z,100516.94
2023-03-17T16:55:46.107Z,100531.69
2023-03-17T16:58:19.370Z,100533.25
2023-03-17T17:00:50.650Z,100538.38
2023-03-17T17:03:17.765Z,100534.75
2023-03-17T17:05:44.804Z,100491.50
2023-03-17T17:08:12.074Z,100538.00
2023-03-17T17:10:39.588Z,100541.34
2023-03-17T17:13:08.120Z,100538.50
2023-03-17T17:15:36.988Z,100549.66
2023-03-17T17:18:22.009Z,100541.56
2023-03-17T17:20:49.692Z,100542.25
2023-03-17T17:23:19.491Z,100540.25
2023-03-17T17:25:48.668Z,100548.75
2023-03-17T17:28:18.763Z,100523.97
2023-03-17T17:30:52.202Z,100550.19
2023-03-17T17:33:22.458Z,100547.44
2023-03-17T17:35:49.949Z,100545.56
2023-03-17T17:38:21.319Z,100549.81
2023-03-17T17:40:51.023Z,100545.25
2023-03-17T17:43:18.327Z,100544.25
2023-03-17T17:45:48.792Z,100522.97
2023-03-17T17:48:17.631Z,100550.25
2023-03-17T17:50:44.830Z,100528.19
2023-03-17T17:53:12.532Z,100546.72
2023-03-17T17:55:44.117Z,100549.25
2023-03-17T17:58:15.981Z,100549.13
2023-03-17T18:00:42.975Z,100545.56
2023-03-17T18:03:10.322Z,100545.47
2023-03-17T18:05:37.291Z,100518.84
2023-03-17T18:08:05.148Z,100561.88
2023-03-17T18:10:32.413Z,100557.50
2023-03-17T18:12:59.759Z,100557.38
2023-03-17T18:15:29.102Z,100543.91
2023-03-17T18:17:56.208Z,100557.00
2023-03-17T18:20:24.418Z,100543.66
2023-03-17T18:22:54.880Z,100536.34
2023-03-17T18:25:21.650Z,100520.22
2023-03-17T18:27:48.622Z,100552.69
2023-03-17T18:30:26.859Z,100551.72
2023-03-17T18:33:00.683Z,100557.66
2023-03-17T18:35:28.736Z,100539.09
2023-03-17T18:37:57.483Z,100549.72
2023-03-17T18:40:25.675Z,100549.59
2023-03-17T18:42:52.624Z,100542.53
2023-03-17T18:45:19.453Z,100558.94
2023-03-17T18:47:46.097Z,100553.63
2023-03-17T18:50:14.557Z,100555.22
2023-03-17T18:52:45.802Z,100556.03
2023-03-17T18:55:13.979Z,100559.56
2023-03-17T18:57:44.244Z,100567.34
2023-03-17T19:00:14.131Z,100567.34
2023-03-17T19:02:40.929Z,100565.59
2023-03-17T19:05:07.850Z,100560.38
2023-03-17T19:07:34.854Z,100560.31
2023-03-17T19:10:01.648Z,100572.56
2023-03-17T19:12:28.443Z,100577.78
2023-03-17T19:14:57.414Z,100551.31
2023-03-17T19:17:24.157Z,100570.78
2023-03-17T19:19:53.343Z,100569.97
2023-03-17T19:22:22.310Z,100572.63
2023-03-17T19:24:50.361Z,100574.47
2023-03-17T19:27:17.794Z,100577.94
2023-03-17T19:29:44.674Z,100589.31
2023-03-17T19:32:11.415Z,100580.63
2023-03-17T19:34:40.668Z,100587.56
2023-03-17T19:37:10.165Z,100581.50
2023-03-17T19:39:37.800Z,100579.72
2023-03-17T19:42:07.537Z,100571.91
2023-03-17T19:44:34.238Z,100569.25
2023-03-17T19:47:05.039Z,100568.38
2023-03-17T19:49:34.739Z,100570.03
2023-03-17T19:52:01.621Z,100552.53
2023-03-17T19:54:28.310Z,100545.56
2023-03-17T19:56:54.963Z,100573.59
2023-03-17T19:59:21.689Z,100568.31
2023-03-17T20:01:50.762Z,100563.94
2023-03-17T20:04:19.650Z,100556.75
2023-03-17T20:06:48.996Z,100576.81
2023-03-17T20:09:16.098Z,100570.28
2023-03-17T20:11:42.730Z,100585.41
2023-03-17T20:14:12.018Z,100567.66
2023-03-17T20:16:40.990Z,100592.25
2023-03-17T20:19:08.363Z,100593.09
2023-03-17T20:21:35.255Z,100585.97
2023-03-17T20:24:04.408Z,100574.56
2023-03-17T20:26:31.098Z,100598.38
2023-03-17T20:28:58.318Z,100599.22
2023-03-17T20:31:28.992Z,100597.38
2023-03-17T20:33:57.036Z,100608.00
2023-03-17T20:36:24.047Z,100608.06
2023-03-17T20:38:50.920Z,100595.75
2023-03-17T20:41:19.362Z,100603.75
2023-03-17T20:43:47.376Z,100609.88
2023-03-17T20:46:17.671Z,100609.06
2023-03-17T20:48:48.801Z,100608.22
2023-03-17T20:51:16.897Z,100616.13
2023-03-17T20:53:47.611Z,100606.53
2023-03-17T20:56:16.537Z,100622.09
2023-03-17T20:58:45.431Z,100593.72
2023-03-17T21:01:12.989Z,100625.41
2023-03-17T21:03:44.310Z,100627.94
2023-03-17T21:06:11.706Z,100628.72
2023-03-17T21:08:44.317Z,100615.59
2023-03-17T21:11:19.019Z,100609.34
2023-03-17T21:13:46.136Z,100619.84
2023-03-17T21:16:24.873Z,100617.25
2023-03-17T21:18:54.476Z,100624.16
2023-03-17T21:21:22.060Z,100623.28
2023-03-17T21:23:48.838Z,100603.94
2023-03-17T21:26:20.326Z,100624.25
2023-03-17T21:28:50.532Z,100610.22
2023-03-17T21:31:17.418Z,100612.88
2023-03-17T21:33:44.539Z,100618.06
2023-03-17T21:36:11.333Z,100619.97
2023-03-17T21:38:38.108Z,100622.56
2023-03-17T21:41:30.578Z,100618.38
2023-03-17T21:43:58.130Z,100615.75
2023-03-17T21:46:26.139Z,100592.03
2023-03-17T21:48:56.112Z,100600.78
2023-03-17T21:51:22.895Z,100609.84
2023-03-17T21:53:49.550Z,100612.53
2023-03-17T21:56:17.040Z,100611.69
2023-03-17T21:58:43.738Z,100615.25
2023-03-17T22:01:11.766Z,100607.53
2023-03-17T22:03:40.016Z,100599.63
2023-03-17T22:06:07.184Z,100611.94
2023-03-17T22:08:34.686Z,100606.72
2023-03-17T22:11:06.586Z,100596.19
2023-03-17T22:13:33.296Z,100604.22
2023-03-17T22:16:00.024Z,100609.41
2023-03-17T22:18:27.167Z,100613.84
2023-03-17T22:21:00.301Z,100607.88
2023-03-17T22:23:28.980Z,100601.69
2023-03-17T22:25:57.358Z,100617.44
2023-03-17T22:28:26.797Z,100611.34
2023-03-17T22:30:54.558Z,100615.59
2023-03-17T22:33:21.206Z,100613.81
2023-03-17T22:35:47.984Z,100607.69
2023-03-17T22:38:14.759Z,100610.25
2023-03-17T22:40:41.500Z,100618.88
2023-03-17T22:43:08.315Z,100612.75
2023-03-17T22:45:35.009Z,100619.59
2023-03-17T22:48:04.308Z,100615.19
2023-03-17T22:50:31.259Z,100597.59
2023-03-17T22:52:58.111Z,100606.28
2023-03-17T22:55:24.780Z,100588.63
2023-03-17T22:57:51.627Z,100620.41
2023-03-17T23:00:18.548Z,100609.78
2023-03-17T23:02:47.889Z,100624.69
2023-03-17T23:05:14.716Z,100622.97
2023-03-17T23:07:50.370Z,100612.34
2023-03-17T23:10:25.345Z,100626.47
2023-03-17T23:12:52.506Z,100626.53
2023-03-17T23:15:20.123Z,100625.59
2023-03-17T23:17:49.029Z,100628.16
2023-03-17T23:20:16.116Z,100618.63
2023-03-17T23:22:42.757Z,100602.59
2023-03-17T23:25:13.642Z,100624.66
2023-03-17T23:27:45.177Z,100596.53
2023-03-17T23:30:12.971Z,100622.09
2023-03-17T23:32:40.816Z,100608.22
2023-03-17T23:35:08.638Z,100617.84
2023-03-17T23:37:36.177Z,100600.44
2023-03-17T23:40:04.479Z,100588.09
2023-03-17T23:42:31.458Z,100610.19
2023-03-17T23:44:58.405Z,100611.94
2023-03-17T23:47:26.498Z,100604.06
2023-03-17T23:49:53.401Z,100604.06
2023-03-17T23:52:21.975Z,100611.94
2023-03-17T23:54:51.523Z,100616.25
2023-03-17T23:57:18.265Z,100617.09
2023-03-17T23:59:45.020Z,100623.16
